sensor_id;sensor_type;location;lat;lon;timestamp;P1;durP1;ratioP1;P2;durP2;ratioP2
47882;SDS011;37739;50.350;7.578;2023-02-01T00:01:46;4.30;;;3.90;;
47882;SDS011;37739;50.350;7.578;2023-02-01T00:04:11;4.10;;;3.70;;
47882;SDS011;37739;50.350;7.578;2023-02-01T00:06:37;3.97;;;3.67;;
47882;SDS011;37739;50.350;7.578;2023-02-01T00:09:04;4.17;;;3.80;;
47882;SDS011;37739;50.350;7.578;2023-02-01T00:11:30;5.60;;;3.93;;
47882;SDS011;37739;50.350;7.578;2023-02-01T00:13:56;4.60;;;4.20;;
47882;SDS011;37739;50.350;7.578;2023-02-01T00:16:25;4.73;;;3.83;;
47882;SDS011;37739;50.350;7.578;2023-02-01T00:18:59;4.73;;;4.17;;
47882;SDS011;37739;50.350;7.578;2023-02-01T00:21:27;5.03;;;4.53;;
47882;SDS011;37739;50.350;7.578;2023-02-01T00:23:54;5.80;;;5.30;;
47882;SDS011;37739;50.350;7.578;2023-02-01T00:26:22;6.07;;;5.40;;
47882;SDS011;37739;50.350;7.578;2023-02-01T00:28:56;6.17;;;5.60;;
47882;SDS011;37739;50.350;7.578;2023-02-01T00:31:21;7.23;;;6.53;;
47882;SDS011;37739;50.350;7.578;2023-02-01T00:33:47;5.43;;;5.00;;
47882;SDS011;37739;50.350;7.578;2023-02-01T00:36:13;8.10;;;6.80;;
47882;SDS011;37739;50.350;7.578;2023-02-01T00:38:41;6.53;;;5.93;;
47882;SDS011;37739;50.350;7.578;2023-02-01T00:41:07;7.67;;;6.97;;
47882;SDS011;37739;50.350;7.578;2023-02-01T00:43:36;7.00;;;6.40;;
47882;SDS011;37739;50.350;7.578;2023-02-01T00:46:04;9.83;;;7.60;;
47882;SDS011;37739;50.350;7.578;2023-02-01T00:48:29;7.27;;;6.67;;
47882;SDS011;37739;50.350;7.578;2023-02-01T00:50:58;7.50;;;6.80;;
47882;SDS011;37739;50.350;7.578;2023-02-01T00:53:27;8.33;;;7.53;;
47882;SDS011;37739;50.350;7.578;2023-02-01T00:55:57;7.37;;;6.43;;
47882;SDS011;37739;50.350;7.578;2023-02-01T00:58:25;7.53;;;6.83;;
47882;SDS011;37739;50.350;7.578;2023-02-01T01:03:30;6.97;;;6.37;;
47882;SDS011;37739;50.350;7.578;2023-02-01T01:05:58;7.23;;;6.63;;
47882;SDS011;37739;50.350;7.578;2023-02-01T01:08:25;8.00;;;7.30;;
47882;SDS011;37739;50.350;7.578;2023-02-01T01:10:53;7.57;;;6.87;;
47882;SDS011;37739;50.350;7.578;2023-02-01T01:13:19;7.90;;;7.20;;
47882;SDS011;37739;50.350;7.578;2023-02-01T01:15:47;6.60;;;5.90;;
47882;SDS011;37739;50.350;7.578;2023-02-01T01:18:17;7.37;;;6.67;;
47882;SDS011;37739;50.350;7.578;2023-02-01T01:20:44;7.60;;;6.90;;
47882;SDS011;37739;50.350;7.578;2023-02-01T01:23:10;7.53;;;6.83;;
47882;SDS011;37739;50.350;7.578;2023-02-01T01:25:38;6.37;;;5.73;;
47882;SDS011;37739;50.350;7.578;2023-02-01T01:28:07;10.37;;;8.43;;
47882;SDS011;37739;50.350;7.578;2023-02-01T01:30:35;9.40;;;8.20;;
47882;SDS011;37739;50.350;7.578;2023-02-01T01:33:00;6.80;;;6.17;;
47882;SDS011;37739;50.350;7.578;2023-02-01T01:35:26;6.20;;;5.60;;
47882;SDS011;37739;50.350;7.578;2023-02-01T01:37:54;6.83;;;6.27;;
47882;SDS011;37739;50.350;7.578;2023-02-01T01:40:20;5.10;;;4.63;;
47882;SDS011;37739;50.350;7.578;2023-02-01T01:42:45;4.60;;;4.20;;
47882;SDS011;37739;50.350;7.578;2023-02-01T01:45:33;5.03;;;4.53;;
47882;SDS011;37739;50.350;7.578;2023-02-01T01:48:21;4.50;;;4.03;;
47882;SDS011;37739;50.350;7.578;2023-02-01T01:51:23;3.73;;;3.43;;
47882;SDS011;37739;50.350;7.578;2023-02-01T01:53:45;4.83;;;4.30;;
47882;SDS011;37739;50.350;7.578;2023-02-01T01:56:16;4.10;;;3.70;;
47882;SDS011;37739;50.350;7.578;2023-02-01T01:58:42;5.67;;;5.07;;
47882;SDS011;37739;50.350;7.578;2023-02-01T02:01:08;4.27;;;3.87;;
47882;SDS011;37739;50.350;7.578;2023-02-01T02:03:40;4.27;;;3.47;;
47882;SDS011;37739;50.350;7.578;2023-02-01T02:09:13;4.10;;;3.63;;
47882;SDS011;37739;50.350;7.578;2023-02-01T02:11:41;4.00;;;3.10;;
47882;SDS011;37739;50.350;7.578;2023-02-01T02:14:09;5.20;;;4.23;;
47882;SDS011;37739;50.350;7.578;2023-02-01T02:33:28;5.93;;;4.13;;
47882;SDS011;37739;50.350;7.578;2023-02-01T02:36:15;4.40;;;3.47;;
47882;SDS011;37739;50.350;7.578;2023-02-01T02:41:19;3.47;;;3.17;;
47882;SDS011;37739;50.350;7.578;2023-02-01T02:44:18;4.50;;;3.37;;
47882;SDS011;37739;50.350;7.578;2023-02-01T02:47:55;5.97;;;3.23;;
47882;SDS011;37739;50.350;7.578;2023-02-01T02:53:11;4.63;;;3.13;;
47882;SDS011;37739;50.350;7.578;2023-02-01T02:56:02;4.30;;;2.70;;
47882;SDS011;37739;50.350;7.578;2023-02-01T02:58:52;4.80;;;2.50;;
47882;SDS011;37739;50.350;7.578;2023-02-01T03:01:37;4.27;;;3.10;;
47882;SDS011;37739;50.350;7.578;2023-02-01T03:04:25;3.03;;;2.73;;
47882;SDS011;37739;50.350;7.578;2023-02-01T03:06:51;3.37;;;2.60;;
47882;SDS011;37739;50.350;7.578;2023-02-01T03:09:24;4.70;;;3.03;;
47882;SDS011;37739;50.350;7.578;2023-02-01T03:11:57;3.33;;;2.43;;
47882;SDS011;37739;50.350;7.578;2023-02-01T03:14:45;3.17;;;2.70;;
47882;SDS011;37739;50.350;7.578;2023-02-01T03:17:14;3.00;;;2.67;;
47882;SDS011;37739;50.350;7.578;2023-02-01T03:19:46;4.27;;;3.43;;
47882;SDS011;37739;50.350;7.578;2023-02-01T03:22:20;4.43;;;3.37;;
47882;SDS011;37739;50.350;7.578;2023-02-01T03:24:53;4.83;;;3.27;;
47882;SDS011;37739;50.350;7.578;2023-02-01T03:32:25;4.00;;;3.60;;
47882;SDS011;37739;50.350;7.578;2023-02-01T03:34:51;5.33;;;3.00;;
47882;SDS011;37739;50.350;7.578;2023-02-01T03:37:22;3.80;;;2.90;;
47882;SDS011;37739;50.350;7.578;2023-02-01T03:40:01;5.40;;;3.70;;
47882;SDS011;37739;50.350;7.578;2023-02-01T03:42:37;4.27;;;3.03;;
47882;SDS011;37739;50.350;7.578;2023-02-01T03:45:10;3.90;;;3.00;;
47882;SDS011;37739;50.350;7.578;2023-02-01T03:47:45;3.83;;;2.97;;
47882;SDS011;37739;50.350;7.578;2023-02-01T03:50:14;5.80;;;3.60;;
47882;SDS011;37739;50.350;7.578;2023-02-01T03:55:24;4.23;;;3.00;;
47882;SDS011;37739;50.350;7.578;2023-02-01T03:57:57;6.27;;;3.10;;
47882;SDS011;37739;50.350;7.578;2023-02-01T04:00:27;3.20;;;2.80;;
47882;SDS011;37739;50.350;7.578;2023-02-01T04:02:53;7.50;;;3.13;;
47882;SDS011;37739;50.350;7.578;2023-02-01T04:05:19;8.40;;;4.23;;
47882;SDS011;37739;50.350;7.578;2023-02-01T04:07:47;5.30;;;3.50;;
47882;SDS011;37739;50.350;7.578;2023-02-01T04:10:12;4.20;;;3.13;;
47882;SDS011;37739;50.350;7.578;2023-02-01T04:12:39;7.30;;;4.83;;
47882;SDS011;37739;50.350;7.578;2023-02-01T04:15:05;8.00;;;5.43;;
47882;SDS011;37739;50.350;7.578;2023-02-01T04:17:31;15.10;;;6.43;;
47882;SDS011;37739;50.350;7.578;2023-02-01T04:19:59;5.63;;;4.30;;
47882;SDS011;37739;50.350;7.578;2023-02-01T04:22:24;6.60;;;4.23;;
47882;SDS011;37739;50.350;7.578;2023-02-01T04:24:52;7.67;;;4.30;;
47882;SDS011;37739;50.350;7.578;2023-02-01T04:27:17;6.67;;;3.43;;
47882;SDS011;37739;50.350;7.578;2023-02-01T04:29:43;5.17;;;3.23;;
47882;SDS011;37739;50.350;7.578;2023-02-01T04:32:10;4.03;;;3.23;;
47882;SDS011;37739;50.350;7.578;2023-02-01T04:34:37;5.80;;;2.93;;
47882;SDS011;37739;50.350;7.578;2023-02-01T04:37:04;9.00;;;3.80;;
47882;SDS011;37739;50.350;7.578;2023-02-01T04:39:32;6.70;;;3.60;;
47882;SDS011;37739;50.350;7.578;2023-02-01T04:42:03;7.03;;;3.60;;
47882;SDS011;37739;50.350;7.578;2023-02-01T04:44:29;4.30;;;3.37;;
47882;SDS011;37739;50.350;7.578;2023-02-01T04:46:54;6.50;;;3.70;;
47882;SDS011;37739;50.350;7.578;2023-02-01T04:49:19;7.80;;;4.67;;
47882;SDS011;37739;50.350;7.578;2023-02-01T04:51:50;5.13;;;3.37;;
47882;SDS011;37739;50.350;7.578;2023-02-01T04:54:18;10.67;;;4.00;;
47882;SDS011;37739;50.350;7.578;2023-02-01T04:56:43;7.00;;;3.40;;
47882;SDS011;37739;50.350;7.578;2023-02-01T04:59:10;7.60;;;3.33;;
47882;SDS011;37739;50.350;7.578;2023-02-01T05:01:36;7.13;;;3.23;;
47882;SDS011;37739;50.350;7.578;2023-02-01T05:04:02;8.03;;;4.10;;
47882;SDS011;37739;50.350;7.578;2023-02-01T05:06:27;6.47;;;3.80;;
47882;SDS011;37739;50.350;7.578;2023-02-01T05:08:52;10.33;;;3.87;;
47882;SDS011;37739;50.350;7.578;2023-02-01T05:11:20;5.87;;;3.47;;
47882;SDS011;37739;50.350;7.578;2023-02-01T05:14:06;7.93;;;3.97;;
47882;SDS011;37739;50.350;7.578;2023-02-01T05:16:34;5.97;;;3.60;;
47882;SDS011;37739;50.350;7.578;2023-02-01T05:19:02;7.80;;;3.90;;
47882;SDS011;37739;50.350;7.578;2023-02-01T05:21:29;8.53;;;4.23;;
47882;SDS011;37739;50.350;7.578;2023-02-01T05:23:55;5.00;;;3.30;;
47882;SDS011;37739;50.350;7.578;2023-02-01T05:26:37;10.00;;;3.63;;
47882;SDS011;37739;50.350;7.578;2023-02-01T05:29:05;10.00;;;4.60;;
47882;SDS011;37739;50.350;7.578;2023-02-01T05:31:33;11.33;;;5.23;;
47882;SDS011;37739;50.350;7.578;2023-02-01T05:34:01;6.60;;;4.00;;
47882;SDS011;37739;50.350;7.578;2023-02-01T05:36:29;8.03;;;4.37;;
47882;SDS011;37739;50.350;7.578;2023-02-01T05:38:56;7.40;;;3.77;;
47882;SDS011;37739;50.350;7.578;2023-02-01T05:41:24;9.77;;;4.37;;
47882;SDS011;37739;50.350;7.578;2023-02-01T05:43:52;7.50;;;4.63;;
47882;SDS011;37739;50.350;7.578;2023-02-01T05:46:17;9.10;;;4.70;;
47882;SDS011;37739;50.350;7.578;2023-02-01T05:48:42;7.73;;;3.60;;
47882;SDS011;37739;50.350;7.578;2023-02-01T05:51:10;8.40;;;4.87;;
47882;SDS011;37739;50.350;7.578;2023-02-01T05:53:36;6.27;;;3.67;;
47882;SDS011;37739;50.350;7.578;2023-02-01T05:56:04;5.60;;;3.70;;
47882;SDS011;37739;50.350;7.578;2023-02-01T05:58:32;10.77;;;4.60;;
47882;SDS011;37739;50.350;7.578;2023-02-01T06:01:01;7.00;;;3.70;;
47882;SDS011;37739;50.350;7.578;2023-02-01T06:03:28;7.83;;;3.87;;
47882;SDS011;37739;50.350;7.578;2023-02-01T06:05:56;10.73;;;4.67;;
47882;SDS011;37739;50.350;7.578;2023-02-01T06:08:21;10.07;;;4.30;;
47882;SDS011;37739;50.350;7.578;2023-02-01T06:10:57;7.63;;;3.83;;
47882;SDS011;37739;50.350;7.578;2023-02-01T06:13:23;7.53;;;3.97;;
47882;SDS011;37739;50.350;7.578;2023-02-01T06:15:48;7.60;;;4.20;;
47882;SDS011;37739;50.350;7.578;2023-02-01T06:18:13;14.20;;;3.87;;
47882;SDS011;37739;50.350;7.578;2023-02-01T06:20:42;14.07;;;4.70;;
47882;SDS011;37739;50.350;7.578;2023-02-01T06:23:12;4.50;;;2.80;;
47882;SDS011;37739;50.350;7.578;2023-02-01T06:25:38;8.40;;;3.60;;
47882;SDS011;37739;50.350;7.578;2023-02-01T06:28:03;8.50;;;3.90;;
47882;SDS011;37739;50.350;7.578;2023-02-01T06:30:30;10.67;;;3.83;;
47882;SDS011;37739;50.350;7.578;2023-02-01T06:32:58;4.83;;;3.60;;
47882;SDS011;37739;50.350;7.578;2023-02-01T06:35:24;7.27;;;3.47;;
47882;SDS011;37739;50.350;7.578;2023-02-01T06:37:51;5.57;;;3.13;;
47882;SDS011;37739;50.350;7.578;2023-02-01T06:40:19;6.40;;;3.27;;
47882;SDS011;37739;50.350;7.578;2023-02-01T06:42:47;6.13;;;3.63;;
47882;SDS011;37739;50.350;7.578;2023-02-01T06:45:15;9.43;;;2.70;;
47882;SDS011;37739;50.350;7.578;2023-02-01T06:47:41;9.63;;;3.90;;
47882;SDS011;37739;50.350;7.578;2023-02-01T06:50:07;8.30;;;3.53;;
47882;SDS011;37739;50.350;7.578;2023-02-01T06:52:33;10.37;;;3.73;;
47882;SDS011;37739;50.350;7.578;2023-02-01T06:54:58;7.80;;;2.87;;
47882;SDS011;37739;50.350;7.578;2023-02-01T06:57:23;8.90;;;3.50;;
47882;SDS011;37739;50.350;7.578;2023-02-01T06:59:57;9.83;;;3.77;;
47882;SDS011;37739;50.350;7.578;2023-02-01T07:02:23;8.80;;;3.10;;
47882;SDS011;37739;50.350;7.578;2023-02-01T07:04:51;10.97;;;3.80;;
47882;SDS011;37739;50.350;7.578;2023-02-01T07:07:18;11.40;;;3.90;;
47882;SDS011;37739;50.350;7.578;2023-02-01T07:09:44;16.30;;;3.70;;
47882;SDS011;37739;50.350;7.578;2023-02-01T07:12:10;8.63;;;3.40;;
47882;SDS011;37739;50.350;7.578;2023-02-01T07:14:35;10.50;;;3.17;;
47882;SDS011;37739;50.350;7.578;2023-02-01T07:17:00;9.70;;;3.90;;
47882;SDS011;37739;50.350;7.578;2023-02-01T07:19:28;7.33;;;3.03;;
47882;SDS011;37739;50.350;7.578;2023-02-01T07:21:56;6.00;;;3.27;;
47882;SDS011;37739;50.350;7.578;2023-02-01T07:24:24;5.13;;;3.23;;
47882;SDS011;37739;50.350;7.578;2023-02-01T07:26:53;8.20;;;3.27;;
47882;SDS011;37739;50.350;7.578;2023-02-01T07:29:19;8.97;;;3.73;;
47882;SDS011;37739;50.350;7.578;2023-02-01T07:31:46;8.90;;;3.70;;
47882;SDS011;37739;50.350;7.578;2023-02-01T07:34:14;10.40;;;3.43;;
47882;SDS011;37739;50.350;7.578;2023-02-01T07:36:42;5.63;;;3.03;;
47882;SDS011;37739;50.350;7.578;2023-02-01T07:39:07;7.87;;;3.63;;
47882;SDS011;37739;50.350;7.578;2023-02-01T07:41:35;9.33;;;3.13;;
47882;SDS011;37739;50.350;7.578;2023-02-01T07:44:05;13.97;;;3.60;;
47882;SDS011;37739;50.350;7.578;2023-02-01T07:46:30;6.83;;;3.20;;
47882;SDS011;37739;50.350;7.578;2023-02-01T07:48:55;11.13;;;3.50;;
47882;SDS011;37739;50.350;7.578;2023-02-01T07:51:23;6.43;;;3.57;;
47882;SDS011;37739;50.350;7.578;2023-02-01T07:53:53;6.67;;;3.70;;
47882;SDS011;37739;50.350;7.578;2023-02-01T07:56:19;8.20;;;3.60;;
47882;SDS011;37739;50.350;7.578;2023-02-01T07:58:51;8.33;;;3.80;;
47882;SDS011;37739;50.350;7.578;2023-02-01T08:01:22;10.17;;;3.03;;
47882;SDS011;37739;50.350;7.578;2023-02-01T08:03:52;10.70;;;3.70;;
47882;SDS011;37739;50.350;7.578;2023-02-01T08:06:24;8.83;;;3.50;;
47882;SDS011;37739;50.350;7.578;2023-02-01T08:08:50;5.97;;;3.07;;
47882;SDS011;37739;50.350;7.578;2023-02-01T08:11:20;7.63;;;3.37;;
47882;SDS011;37739;50.350;7.578;2023-02-01T08:13:48;7.93;;;3.07;;
47882;SDS011;37739;50.350;7.578;2023-02-01T08:16:15;6.73;;;2.70;;
47882;SDS011;37739;50.350;7.578;2023-02-01T08:18:44;9.53;;;3.93;;
47882;SDS011;37739;50.350;7.578;2023-02-01T08:21:11;10.20;;;3.93;;
47882;SDS011;37739;50.350;7.578;2023-02-01T08:23:45;8.20;;;3.37;;
47882;SDS011;37739;50.350;7.578;2023-02-01T08:28:44;11.63;;;3.90;;
47882;SDS011;37739;50.350;7.578;2023-02-01T08:31:18;6.43;;;3.90;;
47882;SDS011;37739;50.350;7.578;2023-02-01T08:33:50;7.77;;;3.17;;
47882;SDS011;37739;50.350;7.578;2023-02-01T08:36:17;6.60;;;2.73;;
47882;SDS011;37739;50.350;7.578;2023-02-01T08:38:45;7.93;;;3.00;;
47882;SDS011;37739;50.350;7.578;2023-02-01T08:41:12;10.03;;;3.70;;
47882;SDS011;37739;50.350;7.578;2023-02-01T08:43:39;9.30;;;3.30;;
47882;SDS011;37739;50.350;7.578;2023-02-01T08:46:08;6.77;;;3.63;;
47882;SDS011;37739;50.350;7.578;2023-02-01T08:48:34;6.93;;;3.53;;
47882;SDS011;37739;50.350;7.578;2023-02-01T08:51:01;9.57;;;3.83;;
47882;SDS011;37739;50.350;7.578;2023-02-01T08:53:30;5.83;;;2.93;;
47882;SDS011;37739;50.350;7.578;2023-02-01T08:55:59;6.87;;;3.20;;
47882;SDS011;37739;50.350;7.578;2023-02-01T08:58:27;10.70;;;3.60;;
47882;SDS011;37739;50.350;7.578;2023-02-01T09:00:52;8.70;;;3.00;;
47882;SDS011;37739;50.350;7.578;2023-02-01T09:03:20;8.67;;;2.90;;
47882;SDS011;37739;50.350;7.578;2023-02-01T09:05:46;9.03;;;3.83;;
47882;SDS011;37739;50.350;7.578;2023-02-01T09:08:12;7.67;;;3.30;;
47882;SDS011;37739;50.350;7.578;2023-02-01T09:10:40;10.80;;;3.97;;
47882;SDS011;37739;50.350;7.578;2023-02-01T09:13:06;5.60;;;3.10;;
47882;SDS011;37739;50.350;7.578;2023-02-01T09:15:32;9.87;;;3.90;;
47882;SDS011;37739;50.350;7.578;2023-02-01T09:18:01;6.13;;;3.27;;
47882;SDS011;37739;50.350;7.578;2023-02-01T09:20:29;7.23;;;3.13;;
47882;SDS011;37739;50.350;7.578;2023-02-01T09:22:55;6.03;;;3.57;;
47882;SDS011;37739;50.350;7.578;2023-02-01T09:25:25;12.97;;;3.90;;
47882;SDS011;37739;50.350;7.578;2023-02-01T09:27:53;8.77;;;4.10;;
47882;SDS011;37739;50.350;7.578;2023-02-01T09:30:20;6.63;;;4.77;;
47882;SDS011;37739;50.350;7.578;2023-02-01T09:32:48;9.57;;;4.13;;
47882;SDS011;37739;50.350;7.578;2023-02-01T09:35:16;9.10;;;4.00;;
47882;SDS011;37739;50.350;7.578;2023-02-01T09:37:43;8.00;;;3.60;;
47882;SDS011;37739;50.350;7.578;2023-02-01T09:40:12;7.30;;;3.00;;
47882;SDS011;37739;50.350;7.578;2023-02-01T09:48:24;9.23;;;4.50;;
47882;SDS011;37739;50.350;7.578;2023-02-01T09:50:55;13.57;;;6.27;;
47882;SDS011;37739;50.350;7.578;2023-02-01T09:56:02;10.67;;;5.90;;
47882;SDS011;37739;50.350;7.578;2023-02-01T10:01:44;5.20;;;3.43;;
47882;SDS011;37739;50.350;7.578;2023-02-01T10:04:15;7.10;;;3.53;;
47882;SDS011;37739;50.350;7.578;2023-02-01T10:12:33;8.97;;;4.70;;
47882;SDS011;37739;50.350;7.578;2023-02-01T10:15:22;6.30;;;3.93;;
47882;SDS011;37739;50.350;7.578;2023-02-01T10:17:56;7.40;;;4.03;;
47882;SDS011;37739;50.350;7.578;2023-02-01T10:25:58;9.20;;;3.80;;
47882;SDS011;37739;50.350;7.578;2023-02-01T10:28:36;5.33;;;2.70;;
47882;SDS011;37739;50.350;7.578;2023-02-01T10:31:06;10.60;;;4.20;;
47882;SDS011;37739;50.350;7.578;2023-02-01T10:33:39;10.27;;;4.40;;
47882;SDS011;37739;50.350;7.578;2023-02-01T10:36:16;10.20;;;4.30;;
47882;SDS011;37739;50.350;7.578;2023-02-01T10:39:02;7.40;;;3.57;;
47882;SDS011;37739;50.350;7.578;2023-02-01T10:41:38;7.43;;;4.87;;
47882;SDS011;37739;50.350;7.578;2023-02-01T10:44:10;7.70;;;3.80;;
47882;SDS011;37739;50.350;7.578;2023-02-01T10:46:38;7.70;;;3.97;;
47882;SDS011;37739;50.350;7.578;2023-02-01T10:49:03;9.17;;;4.00;;
47882;SDS011;37739;50.350;7.578;2023-02-01T10:51:42;9.40;;;4.00;;
47882;SDS011;37739;50.350;7.578;2023-02-01T10:54:22;6.40;;;3.40;;
47882;SDS011;37739;50.350;7.578;2023-02-01T10:56:58;9.30;;;3.50;;
47882;SDS011;37739;50.350;7.578;2023-02-01T10:59:27;10.30;;;3.70;;
47882;SDS011;37739;50.350;7.578;2023-02-01T11:02:02;7.70;;;3.93;;
47882;SDS011;37739;50.350;7.578;2023-02-01T11:04:43;6.23;;;2.67;;
47882;SDS011;37739;50.350;7.578;2023-02-01T11:07:19;5.97;;;3.00;;
47882;SDS011;37739;50.350;7.578;2023-02-01T11:09:50;8.07;;;3.70;;
47882;SDS011;37739;50.350;7.578;2023-02-01T11:15:19;11.37;;;4.10;;
47882;SDS011;37739;50.350;7.578;2023-02-01T11:17:49;8.40;;;3.07;;
47882;SDS011;37739;50.350;7.578;2023-02-01T11:23:11;10.00;;;3.47;;
47882;SDS011;37739;50.350;7.578;2023-02-01T11:25:47;6.97;;;3.70;;
47882;SDS011;37739;50.350;7.578;2023-02-01T11:28:17;10.27;;;4.07;;
47882;SDS011;37739;50.350;7.578;2023-02-01T11:30:47;9.70;;;4.60;;
47882;SDS011;37739;50.350;7.578;2023-02-01T11:33:19;8.63;;;4.27;;
47882;SDS011;37739;50.350;7.578;2023-02-01T11:35:52;11.47;;;5.37;;
47882;SDS011;37739;50.350;7.578;2023-02-01T11:38:27;13.70;;;5.07;;
47882;SDS011;37739;50.350;7.578;2023-02-01T11:41:43;10.87;;;4.77;;
47882;SDS011;37739;50.350;7.578;2023-02-01T11:46:23;10.67;;;5.80;;
47882;SDS011;37739;50.350;7.578;2023-02-01T11:48:55;12.40;;;6.90;;
47882;SDS011;37739;50.350;7.578;2023-02-01T11:51:41;12.20;;;6.00;;
47882;SDS011;37739;50.350;7.578;2023-02-01T12:00:20;7.50;;;5.20;;
47882;SDS011;37739;50.350;7.578;2023-02-01T12:09:06;7.43;;;2.70;;
47882;SDS011;37739;50.350;7.578;2023-02-01T12:14:27;8.13;;;3.87;;
47882;SDS011;37739;50.350;7.578;2023-02-01T12:26:22;4.30;;;2.87;;
47882;SDS011;37739;50.350;7.578;2023-02-01T12:31:50;9.90;;;3.10;;
47882;SDS011;37739;50.350;7.578;2023-02-01T12:34:27;5.90;;;3.23;;
47882;SDS011;37739;50.350;7.578;2023-02-01T12:37:11;8.30;;;2.43;;
47882;SDS011;37739;50.350;7.578;2023-02-01T12:42:22;5.20;;;2.90;;
47882;SDS011;37739;50.350;7.578;2023-02-01T12:44:56;11.23;;;3.30;;
47882;SDS011;37739;50.350;7.578;2023-02-01T12:47:36;5.30;;;2.50;;
47882;SDS011;37739;50.350;7.578;2023-02-01T12:50:14;11.20;;;3.03;;
47882;SDS011;37739;50.350;7.578;2023-02-01T12:52:48;6.23;;;2.63;;
47882;SDS011;37739;50.350;7.578;2023-02-01T12:57:50;5.20;;;3.10;;
47882;SDS011;37739;50.350;7.578;2023-02-01T13:00:22;7.30;;;2.87;;
47882;SDS011;37739;50.350;7.578;2023-02-01T13:08:17;5.10;;;2.13;;
47882;SDS011;37739;50.350;7.578;2023-02-01T13:11:00;7.43;;;3.67;;
47882;SDS011;37739;50.350;7.578;2023-02-01T13:13:36;4.80;;;3.00;;
47882;SDS011;37739;50.350;7.578;2023-02-01T13:18:39;6.10;;;3.30;;
47882;SDS011;37739;50.350;7.578;2023-02-01T13:21:20;7.57;;;3.80;;
47882;SDS011;37739;50.350;7.578;2023-02-01T13:23:53;8.93;;;3.57;;
47882;SDS011;37739;50.350;7.578;2023-02-01T13:26:18;4.97;;;2.87;;
47882;SDS011;37739;50.350;7.578;2023-02-01T13:28:48;7.53;;;3.17;;
47882;SDS011;37739;50.350;7.578;2023-02-01T13:43:00;13.57;;;6.10;;
47882;SDS011;37739;50.350;7.578;2023-02-01T13:45:33;16.37;;;6.63;;
47882;SDS011;37739;50.350;7.578;2023-02-01T13:48:03;13.20;;;6.47;;
47882;SDS011;37739;50.350;7.578;2023-02-01T13:50:36;13.83;;;7.80;;
47882;SDS011;37739;50.350;7.578;2023-02-01T13:58:32;8.90;;;4.23;;
47882;SDS011;37739;50.350;7.578;2023-02-01T14:03:47;11.13;;;5.53;;
47882;SDS011;37739;50.350;7.578;2023-02-01T14:06:18;9.20;;;4.43;;
47882;SDS011;37739;50.350;7.578;2023-02-01T14:11:34;6.60;;;3.30;;
47882;SDS011;37739;50.350;7.578;2023-02-01T14:14:13;5.10;;;3.03;;
47882;SDS011;37739;50.350;7.578;2023-02-01T14:19:21;13.13;;;5.30;;
47882;SDS011;37739;50.350;7.578;2023-02-01T14:21:49;9.80;;;3.93;;
47882;SDS011;37739;50.350;7.578;2023-02-01T14:24:25;9.53;;;4.93;;
47882;SDS011;37739;50.350;7.578;2023-02-01T14:26:54;11.13;;;4.80;;
47882;SDS011;37739;50.350;7.578;2023-02-01T14:29:25;12.13;;;5.73;;
47882;SDS011;37739;50.350;7.578;2023-02-01T14:34:21;9.70;;;3.80;;
47882;SDS011;37739;50.350;7.578;2023-02-01T14:37:00;8.07;;;4.30;;
47882;SDS011;37739;50.350;7.578;2023-02-01T14:39:29;4.37;;;2.47;;
47882;SDS011;37739;50.350;7.578;2023-02-01T14:41:59;6.10;;;2.50;;
47882;SDS011;37739;50.350;7.578;2023-02-01T14:44:31;6.67;;;2.70;;
47882;SDS011;37739;50.350;7.578;2023-02-01T14:47:07;4.47;;;2.57;;
47882;SDS011;37739;50.350;7.578;2023-02-01T14:50:24;9.57;;;3.53;;
47882;SDS011;37739;50.350;7.578;2023-02-01T14:52:32;3.53;;;2.20;;
47882;SDS011;37739;50.350;7.578;2023-02-01T14:55:02;6.03;;;2.90;;
47882;SDS011;37739;50.350;7.578;2023-02-01T14:57:35;8.27;;;2.40;;
47882;SDS011;37739;50.350;7.578;2023-02-01T15:05:58;7.60;;;2.67;;
47882;SDS011;37739;50.350;7.578;2023-02-01T15:08:30;6.30;;;2.70;;
47882;SDS011;37739;50.350;7.578;2023-02-01T15:10:59;6.20;;;2.63;;
47882;SDS011;37739;50.350;7.578;2023-02-01T15:13:28;6.00;;;2.33;;
47882;SDS011;37739;50.350;7.578;2023-02-01T15:16:01;6.30;;;2.40;;
47882;SDS011;37739;50.350;7.578;2023-02-01T15:18:35;8.30;;;3.10;;
47882;SDS011;37739;50.350;7.578;2023-02-01T15:21:02;6.63;;;2.33;;
47882;SDS011;37739;50.350;7.578;2023-02-01T15:23:29;4.60;;;2.60;;
47882;SDS011;37739;50.350;7.578;2023-02-01T15:25:57;5.53;;;3.50;;
47882;SDS011;37739;50.350;7.578;2023-02-01T15:28:22;7.97;;;3.57;;
47882;SDS011;37739;50.350;7.578;2023-02-01T15:30:56;5.73;;;3.37;;
47882;SDS011;37739;50.350;7.578;2023-02-01T15:33:26;8.60;;;3.13;;
47882;SDS011;37739;50.350;7.578;2023-02-01T15:35:56;6.57;;;3.27;;
47882;SDS011;37739;50.350;7.578;2023-02-01T15:38:35;9.70;;;3.90;;
47882;SDS011;37739;50.350;7.578;2023-02-01T15:41:16;6.20;;;3.20;;
47882;SDS011;37739;50.350;7.578;2023-02-01T15:46:22;7.00;;;2.83;;
47882;SDS011;37739;50.350;7.578;2023-02-01T15:49:00;6.50;;;2.77;;
47882;SDS011;37739;50.350;7.578;2023-02-01T15:51:29;6.77;;;2.97;;
47882;SDS011;37739;50.350;7.578;2023-02-01T15:54:07;8.50;;;3.67;;
47882;SDS011;37739;50.350;7.578;2023-02-01T15:56:48;5.00;;;2.70;;
47882;SDS011;37739;50.350;7.578;2023-02-01T15:59:20;5.80;;;3.47;;
47882;SDS011;37739;50.350;7.578;2023-02-01T16:02:25;4.37;;;2.83;;
47882;SDS011;37739;50.350;7.578;2023-02-01T16:04:52;8.60;;;3.63;;
47882;SDS011;37739;50.350;7.578;2023-02-01T16:07:32;7.70;;;4.17;;
47882;SDS011;37739;50.350;7.578;2023-02-01T16:09:59;8.77;;;4.30;;
47882;SDS011;37739;50.350;7.578;2023-02-01T16:15:03;9.20;;;4.10;;
47882;SDS011;37739;50.350;7.578;2023-02-01T16:17:30;7.33;;;3.33;;
47882;SDS011;37739;50.350;7.578;2023-02-01T16:19:55;6.73;;;3.60;;
47882;SDS011;37739;50.350;7.578;2023-02-01T16:22:22;8.20;;;4.20;;
47882;SDS011;37739;50.350;7.578;2023-02-01T16:24:47;8.37;;;3.50;;
47882;SDS011;37739;50.350;7.578;2023-02-01T16:27:12;12.23;;;4.30;;
47882;SDS011;37739;50.350;7.578;2023-02-01T16:29:38;8.03;;;4.37;;
47882;SDS011;37739;50.350;7.578;2023-02-01T16:32:05;10.43;;;3.20;;
47882;SDS011;37739;50.350;7.578;2023-02-01T16:34:33;8.10;;;4.27;;
47882;SDS011;37739;50.350;7.578;2023-02-01T16:37:03;6.90;;;3.27;;
47882;SDS011;37739;50.350;7.578;2023-02-01T16:39:30;9.70;;;3.70;;
47882;SDS011;37739;50.350;7.578;2023-02-01T16:41:58;7.40;;;4.53;;
47882;SDS011;37739;50.350;7.578;2023-02-01T16:44:23;5.30;;;4.00;;
47882;SDS011;37739;50.350;7.578;2023-02-01T16:46:52;8.20;;;3.07;;
47882;SDS011;37739;50.350;7.578;2023-02-01T16:49:21;6.10;;;3.13;;
47882;SDS011;37739;50.350;7.578;2023-02-01T16:51:48;6.60;;;2.87;;
47882;SDS011;37739;50.350;7.578;2023-02-01T16:54:19;8.83;;;3.40;;
47882;SDS011;37739;50.350;7.578;2023-02-01T16:56:47;6.43;;;3.70;;
47882;SDS011;37739;50.350;7.578;2023-02-01T16:59:15;8.90;;;3.10;;
47882;SDS011;37739;50.350;7.578;2023-02-01T17:01:43;5.77;;;2.70;;
47882;SDS011;37739;50.350;7.578;2023-02-01T17:04:11;6.50;;;3.30;;
47882;SDS011;37739;50.350;7.578;2023-02-01T17:06:36;8.13;;;2.87;;
47882;SDS011;37739;50.350;7.578;2023-02-01T17:09:03;6.73;;;3.10;;
47882;SDS011;37739;50.350;7.578;2023-02-01T17:11:31;5.97;;;2.60;;
47882;SDS011;37739;50.350;7.578;2023-02-01T17:14:01;7.37;;;3.30;;
47882;SDS011;37739;50.350;7.578;2023-02-01T17:16:38;6.17;;;2.80;;
47882;SDS011;37739;50.350;7.578;2023-02-01T17:19:05;10.17;;;3.83;;
47882;SDS011;37739;50.350;7.578;2023-02-01T17:21:38;3.90;;;2.67;;
47882;SDS011;37739;50.350;7.578;2023-02-01T17:24:14;6.00;;;2.53;;
47882;SDS011;37739;50.350;7.578;2023-02-01T17:26:43;10.77;;;4.43;;
47882;SDS011;37739;50.350;7.578;2023-02-01T17:29:13;8.73;;;4.10;;
47882;SDS011;37739;50.350;7.578;2023-02-01T17:31:42;5.30;;;2.93;;
47882;SDS011;37739;50.350;7.578;2023-02-01T17:34:11;7.77;;;3.37;;